Portada
METAR-TAF:

METAR-TAF

Aeropuertos :

Base Aérea de Morón

Morón de la Frontera, España

latitud: 37-09N, longitud: 005-37W, altitud: 87 m

Observación

El informe se hizo hace 58 minutos, a las 21:00 UTC
Viento 6 kt del sur-suroeste
Temperatura 15°C
Humedad 55%
Presión 1020 hPa
Visibilidad 10 km o más
sin nubes por debajo de 1500 m y sin presencia de cumulonimbus.

METAR: LEMO 162100Z 21006KT CAVOK 15/06 Q1020 NOSIG

Hora: 23:58 (21:58 UTC)

Pronóstico

El informe se hizo hace 1 hora y 58 minutos, a las 20:00 UTC
Pronóstico válido del 16 a las 21 UTC al 17 a las 06 UTC
Viento 6 kt del sur-suroeste
Visibilidad 10 km o más
sin nubes por debajo de 1500 m y sin presencia de cumulonimbus.

TAF: LEMO 162000Z 1621/1706 21006KT CAVOK

Observaciones y pronósticos meteorológicos de más de 4000 aeropuertos (mensajes METAR y TAF).

Los puntos amarillos y rojos representan las estaciones disponibles.

Ponga el ratón en el punto deseado para ver el nombre de la estación.

Haga clic para ver las observaciones y los pronósticos meteorológicos.

Para cambiar el mapa : haga clic en los botones verdes con una cruz de color negro para hacer un zoom, en el botón verde con un guión para alejar o en las flechas verdes para mapas adyacentes.


METAR-TAF: